Time;durP1;ratioP1;P1;durP2;ratioP2;P2;SDS_P1;SDS_P2;PMS_P1;PMS_P2;Temp;Humidity;BMP_temperature;BMP_pressure;BME280_temperature;BME280_humidity;BME280_pressure;Samples;Min_cycle;Max_cycle;Signal;HPM_P1;HPM_P2
2024/03/08 00:02:33;;;;;;;;;;;;;;;21.25;47.03;101762.21;2345853;74;49952;-80
2024/03/08 00:05:35;;;;;;;;;;;;;;;21.25;47.01;101756.83;2345764;74;50059;-79
2024/03/08 00:08:37;;;;;;;;;;;;;;;21.26;46.92;101755.80;2384153;74;50680;-81
2024/03/08 00:11:38;;;;;;;;;;;;;;;21.24;46.90;101755.13;2384167;74;51493;-82
2024/03/08 00:14:40;;;;;;;;;;;;;;;21.24;46.90;101749.75;2384246;74;51268;-81
2024/03/08 00:17:42;;;;;;;;;;;;;;;21.22;46.86;101752.63;2345497;74;49538;-81
2024/03/08 00:20:44;;;;;;;;;;;;;;;21.23;46.86;101752.12;2383922;74;50377;-81
2024/03/08 00:23:46;;;;;;;;;;;;;;;21.21;46.86;101748.24;2383846;74;51605;-82
2024/03/08 00:26:48;;;;;;;;;;;;;;;21.22;46.80;101749.08;2383873;74;50845;-80
2024/03/08 00:29:50;;;;;;;;;;;;;;;21.21;46.79;101746.89;2345175;74;49328;-80
2024/03/08 00:32:51;;;;;;;;;;;;;;;21.20;46.80;101743.88;2385771;74;50420;-78
2024/03/08 00:35:53;;;;;;;;;;;;;;;21.21;46.77;101747.41;2386445;74;50766;-80
2024/03/08 00:38:55;;;;;;;;;;;;;;;21.20;46.77;101749.78;2385009;74;51454;-80
2024/03/08 00:41:56;;;;;;;;;;;;;;;21.20;46.78;101737.67;2344726;74;50996;-81
2024/03/08 00:44:58;;;;;;;;;;;;;;;21.19;46.79;101740.84;2383341;74;50751;-79
2024/03/08 00:48:00;;;;;;;;;;;;;;;21.19;46.82;101744.88;2383884;74;51503;-81
2024/03/08 00:51:02;;;;;;;;;;;;;;;21.19;46.79;101744.88;2383690;74;50636;-81
2024/03/08 00:54:03;;;;;;;;;;;;;;;21.18;46.81;101737.83;2345715;74;50086;-81
2024/03/08 00:57:06;;;;;;;;;;;;;;;21.19;46.82;101740.84;2345614;74;51594;-80
2024/03/08 01:00:11;;;;;;;;;;;;;;;21.19;46.86;101735.97;2383682;74;50860;-81
2024/03/08 01:03:11;;;;;;;;;;;;;;;21.18;46.84;101736.48;2345960;74;41465;-80
2024/03/08 01:06:13;;;;;;;;;;;;;;;21.18;46.75;101731.61;2345384;74;50843;-81
2024/03/08 01:09:17;;;;;;;;;;;;;;;21.17;46.66;101728.56;2345592;74;50069;-80
2024/03/08 01:12:17;;;;;;;;;;;;;;;21.17;46.65;101729.44;2383663;74;41484;-81
2024/03/08 01:15:19;;;;;;;;;;;;;;;21.16;46.63;101718.83;2383718;74;51167;-80
2024/03/08 01:18:21;;;;;;;;;;;;;;;21.16;46.58;101718.83;2345474;74;49175;-81
2024/03/08 01:21:23;;;;;;;;;;;;;;;21.15;46.60;101711.78;2383696;74;51384;-81
2024/03/08 01:24:25;;;;;;;;;;;;;;;21.16;46.58;101710.24;2383857;74;50741;-81
2024/03/08 01:27:26;;;;;;;;;;;;;;;21.14;46.60;101704.19;2345845;74;50875;-81
2024/03/08 01:30:28;;;;;;;;;;;;;;;21.15;46.62;101699.67;2345327;74;52460;-82
2024/03/08 01:33:31;;;;;;;;;;;;;;;21.15;46.59;101704.54;2383730;74;51459;-81
2024/03/08 01:36:32;;;;;;;;;;;;;;;21.14;46.66;101701.50;2345828;74;51597;-82
2024/03/08 01:39:34;;;;;;;;;;;;;;;21.14;46.58;101693.42;2383922;74;51474;-81
2024/03/08 01:42:40;;;;;;;;;;;;;;;21.14;46.50;101692.08;2345608;74;49479;-82
2024/03/08 01:45:39;;;;;;;;;;;;;;;21.13;46.52;101686.89;2382565;74;41486;-82
2024/03/08 01:48:40;;;;;;;;;;;;;;;21.13;46.48;101689.58;2383923;74;50363;-80
2024/03/08 01:51:42;;;;;;;;;;;;;;;21.12;46.48;101678.46;2383744;74;50427;-82
2024/03/08 01:54:44;;;;;;;;;;;;;;;21.12;46.47;101678.46;2345526;74;50951;-82
2024/03/08 01:57:45;;;;;;;;;;;;;;;21.10;46.48;101679.48;2383891;74;51522;-81
2024/03/08 02:00:49;;;;;;;;;;;;;;;21.10;46.50;101659.82;2383759;74;50198;-81
2024/03/08 02:03:50;;;;;;;;;;;;;;;21.11;46.51;101666.87;2383585;74;51369;-81
2024/03/08 02:06:52;;;;;;;;;;;;;;;21.10;46.45;101659.82;2345502;74;51172;-81
2024/03/08 02:09:53;;;;;;;;;;;;;;;21.09;46.47;101669.75;2345741;74;50199;-82
2024/03/08 02:12:55;;;;;;;;;;;;;;;21.10;46.51;101661.16;2383823;74;50721;-81
2024/03/08 02:16:01;;;;;;;;;;;;;;;21.10;46.49;101657.95;2383599;74;50803;-80
2024/03/08 02:19:02;;;;;;;;;;;;;;;21.09;46.47;101652.25;2345287;74;51278;-80
2024/03/08 02:22:04;;;;;;;;;;;;;;;21.12;46.50;101652.89;2383700;74;51814;-83
2024/03/08 02:25:06;;;;;;;;;;;;;;;21.10;46.44;101653.92;2383675;74;51577;-80
2024/03/08 02:28:07;;;;;;;;;;;;;;;21.12;46.44;101656.94;2345610;74;50970;-81
2024/03/08 02:31:09;;;;;;;;;;;;;;;21.10;46.45;101652.58;2345698;74;51427;-82
2024/03/08 02:34:10;;;;;;;;;;;;;;;21.10;46.44;101649.89;2383763;74;51743;-83
2024/03/08 02:37:12;;;;;;;;;;;;;;;21.10;46.41;101648.54;2383922;74;50799;-81
2024/03/08 02:40:14;;;;;;;;;;;;;;;21.12;46.39;101651.55;2383829;74;50767;-82
2024/03/08 02:43:16;;;;;;;;;;;;;;;21.10;46.33;101647.19;2345403;74;50076;-82
2024/03/08 02:46:17;;;;;;;;;;;;;;;21.10;46.29;101646.36;2345492;74;50653;-81
2024/03/08 02:49:19;;;;;;;;;;;;;;;21.10;46.22;101645.02;2345057;74;50410;-81
2024/03/08 02:52:21;;;;;;;;;;;;;;;21.10;46.27;101638.28;2384623;74;50603;-80
2024/03/08 02:55:25;;;;;;;;;;;;;;;21.09;46.25;101628.52;2349071;74;50231;-81
2024/03/08 02:58:26;;;;;;;;;;;;;;;21.10;46.26;101638.28;2388945;72;40830;-80
2024/03/08 03:01:27;;;;;;;;;;;;;;;21.09;46.26;101634.77;2388846;72;51472;-81
2024/03/08 03:04:29;;;;;;;;;;;;;;;21.10;46.25;101627.52;2386056;74;50775;-82
2024/03/08 03:07:31;;;;;;;;;;;;;;;21.10;46.13;101627.52;2345423;74;49569;-81
2024/03/08 03:10:32;;;;;;;;;;;;;;;21.10;46.16;101632.39;2383858;74;50675;-80
2024/03/08 03:13:34;;;;;;;;;;;;;;;21.10;46.09;101626.17;2383748;74;51398;-80
2024/03/08 03:16:35;;;;;;;;;;;;;;;21.12;46.04;101621.95;2383726;74;50718;-82
2024/03/08 03:19:37;;;;;;;;;;;;;;;21.12;46.04;101623.30;2345634;74;50091;-80
2024/03/08 03:22:38;;;;;;;;;;;;;;;21.12;45.94;101620.60;2384032;74;50785;-81
2024/03/08 03:25:41;;;;;;;;;;;;;;;21.11;45.92;101629.19;2383809;74;50781;-81
2024/03/08 03:28:43;;;;;;;;;;;;;;;21.10;45.90;101616.25;2383797;74;51533;-82
2024/03/08 03:31:47;;;;;;;;;;;;;;;21.10;45.89;101619.45;2345484;74;50947;-81
2024/03/08 03:34:52;;;;;;;;;;;;;;;21.10;45.91;101620.80;2383942;74;50773;-82
2024/03/08 03:38:07;;;;;;;;;;;;;;;21.09;45.82;101618.62;2383515;74;40965;-81
2024/03/08 03:41:14;;;;;;;;;;;;;;;21.09;45.84;101615.93;2383838;74;51496;-81
2024/03/08 03:44:12;;;;;;;;;;;;;;;21.09;45.80;101611.03;2382356;74;41451;-82
2024/03/08 03:47:14;;;;;;;;;;;;;;;21.09;45.81;101618.62;2383422;74;50796;-81
2024/03/08 03:50:16;;;;;;;;;;;;;;;21.09;45.83;101609.20;2383674;74;50766;-81
2024/03/08 03:53:17;;;;;;;;;;;;;;;21.09;45.79;101610.55;2345458;74;50702;-81
2024/03/08 03:56:19;;;;;;;;;;;;;;;21.09;45.85;101611.89;2319354;74;51325;-81
2024/03/08 03:59:21;;;;;;;;;;;;;;;21.09;45.91;101612.38;2383707;74;50650;-82
2024/03/08 04:02:22;;;;;;;;;;;;;;;21.09;45.88;101611.03;2383522;74;51414;-81
2024/03/08 04:05:24;;;;;;;;;;;;;;;21.08;45.86;101608.84;2383657;74;50323;-80
2024/03/08 04:08:25;;;;;;;;;;;;;;;21.08;45.92;101611.55;2319201;74;49637;-81
2024/03/08 04:11:28;;;;;;;;;;;;;;;21.08;45.91;101612.88;2383542;74;50404;-81
2024/03/08 04:14:29;;;;;;;;;;;;;;;21.08;45.88;101612.88;2383766;74;51211;-81
2024/03/08 04:17:31;;;;;;;;;;;;;;;21.08;45.93;101609.36;2383615;74;51489;-81
2024/03/08 04:20:32;;;;;;;;;;;;;;;21.07;45.82;101613.08;2345417;74;50968;-81
2024/03/08 04:23:38;;;;;;;;;;;;;;;21.07;45.90;101612.56;2383729;74;50327;-80
2024/03/08 04:26:37;;;;;;;;;;;;;;;21.06;45.95;101616.25;2382759;74;41029;-81
2024/03/08 04:29:39;;;;;;;;;;;;;;;21.07;45.91;101615.26;2383700;74;51471;-80
2024/03/08 04:32:43;;;;;;;;;;;;;;;21.07;45.91;101618.47;2345279;74;50998;-82
2024/03/08 04:35:46;;;;;;;;;;;;;;;21.06;45.85;101613.56;2383684;74;51692;-82
2024/03/08 04:38:47;;;;;;;;;;;;;;;21.06;45.85;101612.73;2383610;74;51454;-82
2024/03/08 04:41:49;;;;;;;;;;;;;;;21.05;45.82;101614.59;2383470;74;51526;-83
2024/03/08 04:44:53;;;;;;;;;;;;;;;21.06;45.92;101611.38;2345444;74;50967;-82
2024/03/08 04:47:55;;;;;;;;;;;;;;;21.05;45.93;101606.52;2383545;74;51602;-82
2024/03/08 04:50:56;;;;;;;;;;;;;;;21.07;45.86;101611.73;2383596;74;50968;-82
2024/03/08 04:53:59;;;;;;;;;;;;;;;21.06;45.80;101605.49;2383544;74;51685;-82
2024/03/08 04:57:01;;;;;;;;;;;;;;;21.05;45.83;101603.83;2345322;74;51281;-80
2024/03/08 05:00:11;;;;;;;;;;;;;;;21.04;45.87;101610.23;2383303;74;51756;-82
2024/03/08 05:03:09;;;;;;;;;;;;;;;21.05;45.85;101605.17;2382062;74;41486;-81
2024/03/08 05:06:11;;;;;;;;;;;;;;;21.04;45.77;101604.85;2344922;74;49590;-80
2024/03/08 05:09:15;;;;;;;;;;;;;;;21.03;45.85;101597.77;2344765;74;52455;-81
2024/03/08 05:12:18;;;;;;;;;;;;;;;21.03;45.82;101599.13;2384149;74;50797;-79
2024/03/08 05:15:20;;;;;;;;;;;;;;;21.03;45.82;101597.77;2384835;74;51241;-80
2024/03/08 05:18:22;;;;;;;;;;;;;;;21.03;45.79;101596.43;2345847;74;50812;-81
2024/03/08 05:21:23;;;;;;;;;;;;;;;21.03;45.85;101592.39;2383967;74;51868;-81
2024/03/08 05:24:25;;;;;;;;;;;;;;;21.03;45.86;101596.95;2384010;74;50728;-82
2024/03/08 05:27:28;;;;;;;;;;;;;;;21.02;45.83;101597.45;2383820;74;50636;-82
2024/03/08 05:30:29;;;;;;;;;;;;;;;21.02;45.84;101596.63;2383945;74;50526;-82
2024/03/08 05:33:31;;;;;;;;;;;;;;;21.02;45.86;101600.15;2345571;74;50051;-81
2024/03/08 05:36:33;;;;;;;;;;;;;;;21.02;45.85;101596.11;2383902;74;51249;-83
2024/03/08 05:39:35;;;;;;;;;;;;;;;21.02;45.87;101590.73;2383767;74;51578;-80
2024/03/08 05:42:36;;;;;;;;;;;;;;;21.02;45.86;101594.77;2345851;74;51468;-81
2024/03/08 05:45:38;;;;;;;;;;;;;;;21.02;45.84;101592.59;2345571;74;50965;-82
2024/03/08 05:48:39;;;;;;;;;;;;;;;21.02;45.80;101589.90;2383874;74;50302;-82
2024/03/08 05:51:41;;;;;;;;;;;;;;;21.01;45.78;101593.07;2383860;74;52154;-82
2024/03/08 05:54:43;;;;;;;;;;;;;;;21.00;45.82;101590.06;2345835;74;52030;-81
2024/03/08 05:57:45;;;;;;;;;;;;;;;21.02;45.83;101585.86;2345886;74;51718;-82
2024/03/08 06:00:46;;;;;;;;;;;;;;;21.00;45.72;101587.89;2345669;74;50856;-80
2024/03/08 06:03:49;;;;;;;;;;;;;;;21.02;45.84;101597.45;2383960;74;49972;-81
2024/03/08 06:06:52;;;;;;;;;;;;;;;21.02;45.99;101596.11;2383673;74;51637;-80
2024/03/08 06:09:54;;;;;;;;;;;;;;;21.03;46.13;101601.81;2332548;74;51139;-79
2024/03/08 06:12:55;;;;;;;;;;;;;;;21.03;46.26;101596.43;2344610;74;51319;-81
2024/03/08 06:15:57;;;;;;;;;;;;;;;21.03;46.35;101602.33;2354635;74;50749;-82
2024/03/08 06:18:59;;;;;;;;;;;;;;;21.04;46.41;101601.30;2343348;74;50361;-79
2024/03/08 06:22:05;;;;;;;;;;;;;;;21.04;46.43;101607.55;2343607;74;50882;-80
2024/03/08 06:25:05;;;;;;;;;;;;;;;21.06;46.44;101606.00;2365125;74;40922;-81
2024/03/08 06:28:07;;;;;;;;;;;;;;;21.05;46.42;101605.17;2383398;74;50818;-81
2024/03/08 06:31:10;;;;;;;;;;;;;;;21.05;46.38;101605.17;2376431;74;50779;-81
2024/03/08 06:34:11;;;;;;;;;;;;;;;21.05;46.28;101602.48;2343774;75;49921;-81
2024/03/08 06:37:14;;;;;;;;;;;;;;;21.04;46.08;101604.85;2320171;76;50112;-81
2024/03/08 06:40:16;;;;;;;;;;;;;;;21.05;45.92;101609.72;2342283;75;51467;-81
2024/03/08 06:43:18;;;;;;;;;;;;;;;21.04;45.77;101606.20;2342994;75;51254;-81
2024/03/08 06:46:20;;;;;;;;;;;;;;;21.03;45.76;101600.47;2344675;75;52038;-81
2024/03/08 06:49:22;;;;;;;;;;;;;;;21.04;45.75;101596.78;2347215;74;51004;-81
2024/03/08 06:52:23;;;;;;;;;;;;;;;21.04;45.66;101595.91;2342300;76;50350;-81
2024/03/08 06:55:25;;;;;;;;;;;;;;;21.01;45.78;101598.45;2342487;76;50278;-82
2024/03/08 06:58:27;;;;;;;;;;;;;;;21.02;45.89;101589.38;2342509;76;51012;-82
2024/03/08 07:01:31;;;;;;;;;;;;;;;21.03;46.12;101593.73;2346806;75;50136;-82
2024/03/08 07:04:33;;;;;;;;;;;;;;;21.05;46.24;101598.44;2357710;74;41429;-81
2024/03/08 07:07:35;;;;;;;;;;;;;;;21.06;46.78;101592.03;2342267;76;51278;-81
2024/03/08 07:10:37;;;;;;;;;;;;;;;21.07;46.88;101593.73;2342092;75;51224;-81
2024/03/08 07:13:41;;;;;;;;;;;;;;;21.08;46.93;101584.62;2329713;74;51050;-81
2024/03/08 07:16:44;;;;;;;;;;;;;;;21.10;46.83;101588.50;2342068;76;51003;-82
2024/03/08 07:19:46;;;;;;;;;;;;;;;21.10;46.76;101587.98;2343954;74;51497;-81
2024/03/08 07:22:47;;;;;;;;;;;;;;;21.12;46.75;101591.00;2379547;74;50581;-81
2024/03/08 07:25:49;;;;;;;;;;;;;;;21.12;46.77;101589.17;2315539;76;49657;-80
2024/03/08 07:28:51;;;;;;;;;;;;;;;21.15;46.75;101589.33;2315818;76;51635;-80
2024/03/08 07:32:12;;;;;;;;;;;;;;;21.14;46.67;101588.46;2342101;75;51510;-80
2024/03/08 07:35:04;;;;;;;;;;;;;;;21.15;46.62;101584.77;2340083;76;41550;-81
2024/03/08 07:38:07;;;;;;;;;;;;;;;21.16;46.66;101592.33;2280091;76;51646;-81
2024/03/08 07:41:09;;;;;;;;;;;;;;;21.19;46.76;101579.86;2330076;74;51603;-80
2024/03/08 07:44:10;;;;;;;;;;;;;;;21.18;46.82;101572.30;2343938;74;51555;-81
2024/03/08 07:47:12;;;;;;;;;;;;;;;21.18;46.97;101569.61;2342527;75;51402;-81
2024/03/08 07:50:16;;;;;;;;;;;;;;;21.19;47.01;101580.69;2342119;76;50411;-81
2024/03/08 07:53:17;;;;;;;;;;;;;;;21.21;47.02;101573.80;2312902;74;41362;-81
2024/03/08 07:56:21;;;;;;;;;;;;;;;21.21;47.24;101567.91;2342170;76;50420;-82
2024/03/08 07:59:22;;;;;;;;;;;;;;;21.22;47.22;101568.73;2320574;75;41332;-83
2024/03/08 08:02:23;;;;;;;;;;;;;;;21.23;47.14;101567.73;2303797;76;49613;-82
2024/03/08 08:05:26;;;;;;;;;;;;;;;21.25;47.12;101564.36;2303436;76;50688;-82
2024/03/08 08:08:27;;;;;;;;;;;;;;;21.26;47.03;101561.47;2341642;74;51001;-83
2024/03/08 08:11:29;;;;;;;;;;;;;;;21.28;47.02;101561.31;2344496;74;51525;-82
2024/03/08 08:14:30;;;;;;;;;;;;;;;21.27;47.04;101553.75;2345181;75;50955;-81
2024/03/08 08:17:32;;;;;;;;;;;;;;;21.29;46.99;101554.89;2343654;74;50351;-81
2024/03/08 08:20:34;;;;;;;;;;;;;;;21.29;47.01;101548.17;2374141;74;50424;-81
2024/03/08 08:23:36;;;;;;;;;;;;;;;21.30;46.99;101552.55;2385059;74;50437;-80
2024/03/08 08:26:37;;;;;;;;;;;;;;;21.30;47.16;101547.17;2329447;76;50195;-83
2024/03/08 08:29:39;;;;;;;;;;;;;;;21.33;47.25;101551.36;2305383;76;50107;-82
2024/03/08 08:32:46;;;;;;;;;;;;;;;21.35;47.34;101547.47;2342328;76;51554;-82
2024/03/08 08:35:44;;;;;;;;;;;;;;;21.35;47.38;101544.78;2340942;76;40965;-84
2024/03/08 08:38:46;;;;;;;;;;;;;;;21.38;47.40;101544.44;2279785;76;51014;-82
2024/03/08 08:41:47;;;;;;;;;;;;;;;21.38;47.44;101551.17;2342079;76;51733;-82
2024/03/08 08:44:50;;;;;;;;;;;;;;;21.42;47.59;101549.78;2350511;74;50382;-81
2024/03/08 08:47:52;;;;;;;;;;;;;;;21.47;47.55;101539.30;2366269;74;52140;-81
2024/03/08 08:50:55;;;;;;;;;;;;;;;21.56;47.69;101546.83;2305226;76;51150;-80
2024/03/08 08:53:56;;;;;;;;;;;;;;;21.64;47.46;101533.80;2341898;74;51526;-81
2024/03/08 08:56:58;;;;;;;;;;;;;;;21.70;47.11;101529.02;2341844;76;50324;-82
2024/03/08 09:00:00;;;;;;;;;;;;;;;21.76;47.70;101532.35;2305644;76;51529;-80
2024/03/08 09:03:02;;;;;;;;;;;;;;;21.80;47.56;101528.25;2305048;76;50922;-79
2024/03/08 09:06:10;;;;;;;;;;;;;;;21.79;47.88;101518.52;2305347;76;50861;-79
2024/03/08 09:09:16;;;;;;;;;;;;;;;21.80;47.69;101520.69;2342258;76;40934;-80
2024/03/08 09:12:14;;;;;;;;;;;;;;;21.82;47.88;101522.18;2317597;74;41448;-79
2024/03/08 09:15:17;;;;;;;;;;;;;;;21.84;47.37;101518.80;2338495;74;49526;-80
2024/03/08 09:18:19;;;;;;;;;;;;;;;21.85;46.80;101516.42;2317472;76;41041;-82
2024/03/08 09:21:21;;;;;;;;;;;;;;;21.87;46.72;101503.61;2353728;74;52181;-81
2024/03/08 09:24:23;;;;;;;;;;;;;;;21.88;46.64;101501.22;2383097;74;51998;-80
2024/03/08 09:27:24;;;;;;;;;;;;;;;21.89;46.63;101501.57;2345411;74;50944;-81
2024/03/08 09:30:26;;;;;;;;;;;;;;;21.91;46.85;101498.67;2379352;74;50419;-83
2024/03/08 09:33:28;;;;;;;;;;;;;;;21.96;46.88;101498.47;2342571;76;50658;-80
2024/03/08 09:36:32;;;;;;;;;;;;;;;21.98;47.09;101494.74;2341993;76;51268;-81
2024/03/08 09:39:33;;;;;;;;;;;;;;;22.01;46.99;101483.59;2342512;76;41073;-81
2024/03/08 09:42:39;;;;;;;;;;;;;;;22.12;48.42;101481.28;2342171;76;51065;-81
2024/03/08 09:45:41;;;;;;;;;;;;;;;22.15;47.31;101486.80;2345220;76;51620;-80
2024/03/08 09:48:43;;;;;;;;;;;;;;;22.23;47.52;101478.65;2345637;73;51299;-83
2024/03/08 09:51:45;;;;;;;;;;;;;;;22.24;46.81;101474.91;2345689;74;50920;-82
2024/03/08 09:54:47;;;;;;;;;;;;;;;22.25;46.93;101480.66;2342813;76;51552;-82
2024/03/08 10:00:52;;;;;;;;;;;;;;;22.25;46.03;101478.47;2276709;76;40956;-85
2024/03/08 10:03:54;;;;;;;;;;;;;;;22.18;45.13;101467.55;2346956;75;50984;-82
2024/03/08 10:06:57;;;;;;;;;;;;;;;22.11;41.99;101456.67;2342472;76;50795;-84
2024/03/08 10:09:59;;;;;;;;;;;;;;;22.11;41.48;101449.94;2342865;76;51336;-83
2024/03/08 10:13:01;;;;;;;;;;;;;;;22.12;41.99;101457.53;2342642;76;51245;-83
2024/03/08 10:16:02;;;;;;;;;;;;;;;22.14;42.76;101451.42;2346848;74;49529;-83
2024/03/08 10:19:05;;;;;;;;;;;;;;;22.18;43.28;101447.34;2346514;75;50733;-82
2024/03/08 10:22:07;;;;;;;;;;;;;;;22.19;43.66;101444.98;2342065;76;51514;-81
2024/03/08 10:25:10;;;;;;;;;;;;;;;22.24;44.02;101437.69;2342000;76;51458;-81
2024/03/08 10:28:12;;;;;;;;;;;;;;;22.29;44.20;101442.00;2346593;75;49394;-81
2024/03/08 10:31:15;;;;;;;;;;;;;;;22.33;44.61;101435.22;2342391;76;51195;-82
2024/03/08 10:34:16;;;;;;;;;;;;;;;22.34;46.21;101433.67;2342233;76;50929;-82
2024/03/08 10:37:22;;;;;;;;;;;;;;;22.39;47.00;101437.16;2341968;76;50984;-82
2024/03/08 10:40:21;;;;;;;;;;;;;;;22.45;48.88;101424.25;2342410;75;22238;-83
2024/03/08 10:43:29;;;;;;;;;;;;;;;22.48;49.14;101434.69;2342420;76;51613;-82
2024/03/08 10:46:37;;;;;;;;;;;;;;;22.46;47.91;101427.80;2369742;74;21771;-82
2024/03/08 10:49:39;;;;;;;;;;;;;;;22.42;45.70;101427.85;2382789;74;50763;-80
2024/03/08 10:52:41;;;;;;;;;;;;;;;22.32;42.19;101414.14;2314795;74;49674;-81
2024/03/08 10:55:42;;;;;;;;;;;;;;;22.30;41.00;101405.44;2352112;75;50433;-83
2024/03/08 10:58:44;;;;;;;;;;;;;;;22.32;41.25;101399.83;2342469;75;50518;-81
2024/03/08 11:01:46;;;;;;;;;;;;;;;22.35;41.88;101398.96;2379101;74;50688;-81
2024/03/08 11:04:49;;;;;;;;;;;;;;;22.37;42.38;101396.05;2345746;74;49609;-80
2024/03/08 11:07:51;;;;;;;;;;;;;;;22.39;43.05;101391.31;2383680;74;50798;-80
2024/03/08 11:10:57;;;;;;;;;;;;;;;22.39;43.48;101385.41;2383846;74;50863;-82
2024/03/08 11:13:58;;;;;;;;;;;;;;;22.39;43.93;101382.70;2383882;74;50448;-80
2024/03/08 11:17:00;;;;;;;;;;;;;;;22.42;44.16;101380.66;2346107;74;50067;-83
2024/03/08 11:20:05;;;;;;;;;;;;;;;22.42;44.30;101382.01;2345494;74;51431;-81
2024/03/08 11:23:05;;;;;;;;;;;;;;;22.38;44.42;101371.61;2383394;74;22283;-81
2024/03/08 11:26:24;;;;;;;;;;;;;;;22.39;44.49;101370.57;2345489;74;51998;-83
2024/03/08 11:29:37;;;;;;;;;;;;;;;22.45;44.66;101364.09;2306021;76;50972;-82
2024/03/08 11:32:39;;;;;;;;;;;;;;;22.47;45.01;101357.48;2343747;76;50788;-83
2024/03/08 11:35:41;;;;;;;;;;;;;;;22.46;45.04;101349.59;2343368;76;50726;-84
2024/03/08 11:38:48;;;;;;;;;;;;;;;22.48;45.02;101352.43;2306938;76;50136;-84
2024/03/08 11:41:46;;;;;;;;;;;;;;;22.48;45.18;101360.52;2346300;76;21787;-83
2024/03/08 11:44:48;;;;;;;;;;;;;;;22.48;45.15;101339.43;2346781;76;51308;-83
2024/03/08 11:47:49;;;;;;;;;;;;;;;22.48;45.34;101342.13;2345112;76;50645;-82
2024/03/08 11:50:53;;;;;;;;;;;;;;;22.49;45.18;101339.25;2342136;76;51977;-83
2024/03/08 11:53:54;;;;;;;;;;;;;;;22.49;45.18;101331.69;2304440;76;49509;-83
2024/03/08 11:57:00;;;;;;;;;;;;;;;22.49;45.07;101337.08;2342749;76;51427;-82
2024/03/08 12:00:06;;;;;;;;;;;;;;;22.48;45.03;101334.90;2306913;76;22428;-83
2024/03/08 12:03:12;;;;;;;;;;;;;;;22.48;44.87;101321.91;2342676;76;51649;-84
2024/03/08 12:06:16;;;;;;;;;;;;;;;22.48;44.66;101329.50;2341285;76;22313;-83
2024/03/08 12:09:15;;;;;;;;;;;;;;;22.48;44.57;101321.91;2341917;76;22364;-83
2024/03/08 12:12:16;;;;;;;;;;;;;;;22.46;44.63;101318.59;2306378;76;51530;-82
2024/03/08 12:15:18;;;;;;;;;;;;;;;22.46;44.31;101309.16;2343237;76;51495;-82
2024/03/08 12:18:20;;;;;;;;;;;;;;;22.47;44.11;101311.63;2306462;76;50165;-82
2024/03/08 12:21:23;;;;;;;;;;;;;;;22.46;43.97;101310.50;2343214;76;51446;-83
2024/03/08 12:24:27;;;;;;;;;;;;;;;22.47;43.99;101308.94;2343363;76;50291;-83
2024/03/08 12:27:28;;;;;;;;;;;;;;;22.48;44.11;101301.67;2343502;76;24560;-83
2024/03/08 12:30:33;;;;;;;;;;;;;;;22.48;44.14;101304.37;2306459;76;50909;-82
2024/03/08 12:33:34;;;;;;;;;;;;;;;22.48;44.06;101294.94;2343478;76;22818;-83
2024/03/08 12:36:39;;;;;;;;;;;;;;;22.51;44.22;101293.23;2343445;76;51510;-84
2024/03/08 12:39:41;;;;;;;;;;;;;;;22.48;44.16;101285.49;2343298;76;51497;-83
2024/03/08 12:42:42;;;;;;;;;;;;;;;22.49;44.26;101277.23;2306558;76;50891;-83
2024/03/08 12:45:44;;;;;;;;;;;;;;;22.49;44.13;101275.05;2343515;76;50725;-84
2024/03/08 12:48:46;;;;;;;;;;;;;;;22.49;44.14;101278.57;2343509;76;51644;-84
2024/03/08 12:51:48;;;;;;;;;;;;;;;22.48;44.22;101269.31;2343466;76;51317;-83
2024/03/08 12:54:50;;;;;;;;;;;;;;;22.49;44.04;101264.26;2306071;76;50934;-83
2024/03/08 12:57:53;;;;;;;;;;;;;;;22.46;44.10;101241.21;2306081;76;51394;-83
2024/03/08 13:00:54;;;;;;;;;;;;;;;22.48;44.02;101246.39;2343190;76;51031;-83
2024/03/08 13:03:56;;;;;;;;;;;;;;;22.48;43.92;101243.20;2342875;76;50894;-83
2024/03/08 13:06:58;;;;;;;;;;;;;;;22.47;43.92;101238.82;2305934;76;49490;-83
2024/03/08 13:09:59;;;;;;;;;;;;;;;22.48;43.88;101236.95;2343091;76;50569;-82
2024/03/08 13:13:03;;;;;;;;;;;;;;;22.48;43.86;101238.30;2342938;76;51483;-83
2024/03/08 13:16:08;;;;;;;;;;;;;;;22.48;43.79;101230.21;2342993;76;51323;-83
2024/03/08 13:19:08;;;;;;;;;;;;;;;22.47;43.73;101242.87;2342963;76;22243;-83
2024/03/08 13:22:16;;;;;;;;;;;;;;;22.48;43.75;101222.12;2343261;76;52480;-82
2024/03/08 13:25:16;;;;;;;;;;;;;;;22.47;43.61;101220.47;2343405;76;22396;-83
2024/03/08 13:28:22;;;;;;;;;;;;;;;22.46;43.75;101227.73;2343334;76;50720;-82
2024/03/08 13:31:21;;;;;;;;;;;;;;;22.45;43.76;101214.42;2342643;76;22469;-82
2024/03/08 13:34:29;;;;;;;;;;;;;;;22.45;43.76;101208.52;2343049;76;50679;-83
2024/03/08 13:37:26;;;;;;;;;;;;;;;22.44;43.73;101205.51;2341955;76;22460;-83
2024/03/08 13:40:30;;;;;;;;;;;;;;;22.45;43.86;101203.64;2342983;76;51562;-84
2024/03/08 13:43:34;;;;;;;;;;;;;;;22.43;43.86;101200.30;2305828;76;49593;-82
2024/03/08 13:46:36;;;;;;;;;;;;;;;22.44;43.77;101188.50;2342719;76;51631;-83
2024/03/08 13:49:38;;;;;;;;;;;;;;;22.44;43.82;101187.98;2343046;76;50158;-83
2024/03/08 13:52:40;;;;;;;;;;;;;;;22.43;43.76;101186.81;2342948;76;52320;-83
2024/03/08 13:55:42;;;;;;;;;;;;;;;22.42;43.79;101183.81;2305933;76;51762;-83
2024/03/08 13:58:43;;;;;;;;;;;;;;;22.42;43.69;101176.55;2306471;76;51440;-84
2024/03/08 14:01:45;;;;;;;;;;;;;;;22.40;43.77;101178.60;2342995;76;51551;-84
2024/03/08 14:04:47;;;;;;;;;;;;;;;22.38;43.80;101177.47;2343438;76;51467;-82
2024/03/08 14:07:49;;;;;;;;;;;;;;;22.38;43.81;101165.34;2305833;76;51066;-83
2024/03/08 14:10:52;;;;;;;;;;;;;;;22.37;43.88;101162.30;2343023;76;51422;-83
2024/03/08 14:13:53;;;;;;;;;;;;;;;22.35;43.94;101154.95;2346543;76;24933;-81
2024/03/08 14:16:57;;;;;;;;;;;;;;;22.34;43.96;101154.61;2310349;76;50583;-83
2024/03/08 14:19:59;;;;;;;;;;;;;;;22.33;43.99;101161.05;2311513;76;22283;-81
2024/03/08 14:23:00;;;;;;;;;;;;;;;22.32;43.96;101149.92;2347087;76;50771;-81
2024/03/08 14:26:02;;;;;;;;;;;;;;;22.31;44.02;101146.92;2343831;76;50733;-82
2024/03/08 14:29:04;;;;;;;;;;;;;;;22.31;43.96;101144.75;2306057;76;50163;-82
2024/03/08 14:32:06;;;;;;;;;;;;;;;22.29;44.10;101135.49;2305590;76;51033;-83
2024/03/08 14:35:08;;;;;;;;;;;;;;;22.28;44.08;101135.19;2305670;76;50801;-84
2024/03/08 14:38:10;;;;;;;;;;;;;;;22.27;44.13;101133.53;2305986;76;50728;-83
2024/03/08 14:41:12;;;;;;;;;;;;;;;22.27;44.05;101130.84;2342694;76;51001;-83
2024/03/08 14:44:13;;;;;;;;;;;;;;;22.27;44.05;101121.89;2280713;76;51135;-83
2024/03/08 14:47:15;;;;;;;;;;;;;;;22.25;44.02;101114.02;2342697;76;50777;-83
2024/03/08 14:50:17;;;;;;;;;;;;;;;22.26;43.95;101112.98;2342789;76;50969;-83
2024/03/08 14:53:19;;;;;;;;;;;;;;;22.25;43.97;101110.50;2305842;76;52101;-83
2024/03/08 14:56:22;;;;;;;;;;;;;;;22.24;44.07;101105.59;2305699;76;49482;-83
2024/03/08 14:59:27;;;;;;;;;;;;;;;22.23;44.05;101105.29;2306281;76;50747;-83
2024/03/08 15:02:27;;;;;;;;;;;;;;;22.24;44.03;101108.29;2342727;76;22608;-83
2024/03/08 15:05:31;;;;;;;;;;;;;;;22.24;43.93;101101.55;2342574;76;50384;-82
2024/03/08 15:08:32;;;;;;;;;;;;;;;22.21;43.96;101101.95;2342411;76;22415;-83
2024/03/08 15:11:34;;;;;;;;;;;;;;;22.20;43.96;101096.77;2342457;76;52145;-83
2024/03/08 15:14:39;;;;;;;;;;;;;;;22.20;43.99;101096.25;2342405;76;50455;-83
2024/03/08 15:17:42;;;;;;;;;;;;;;;22.19;43.98;101089.17;2342694;76;50766;-82
2024/03/08 15:20:47;;;;;;;;;;;;;;;22.18;43.96;101091.53;2305618;76;50968;-83
2024/03/08 15:23:51;;;;;;;;;;;;;;;22.15;44.02;101078.45;2342653;76;22597;-83
2024/03/08 15:26:55;;;;;;;;;;;;;;;22.15;43.92;101080.63;2307475;76;21877;-83
2024/03/08 15:29:58;;;;;;;;;;;;;;;22.13;43.96;101072.42;2342963;76;22558;-82
2024/03/08 15:33:03;;;;;;;;;;;;;;;22.13;43.96;101067.86;2305540;76;50240;-82
2024/03/08 15:36:09;;;;;;;;;;;;;;;22.13;44.03;101065.69;2342332;76;21912;-82
2024/03/08 15:39:09;;;;;;;;;;;;;;;22.12;44.02;101062.16;2304605;76;22548;-82